Airfield :
LOGIN :

Register | Disclaimer

   EN    FR    IT 

 










Legend :    VFR   Marginal VFR   IFR   Intensive IFR   Very Intensive IFR
Visi :
Ceiling :
>= 8 km
>= 3000ft
5 to 8 km
1000 to 3000 ft
1500m to 5 km
500 to 1000 ft
800 to 1500m
200 to 500 ft
< 800m
< 200 ft
Symbols :   Thunderstorms  Fog  Heavy snow  Heavy precipitations  Wind > 20 kt
SIGMETs :     Misc.  Thunderstorms  Icing  Turbulence  Mountain Waves  Volcanic Ashes







- Airport Elevation : 502 ft
- IATA code : ORK


EICK - Cork

CURRENT METAR :
  • 250100Z 32003KT 9999 BKN039 13/10 Q1021 NOSIG

EXPIRED METARs :
  • 250030Z 31004KT 9999 BKN043 13/11 Q1021 NOSIG
  • 250000Z 32004KT 9999 -RA BKN045 BKN100 13/11 Q1021 NOSIG
  • 242330Z 30004KT 9999 -RA FEW032 SCT050 BKN100 13/11 Q1021 NOSIG
  • 242300Z 30009KT 9999 FEW032 BKN090 13/11 Q1021 NOSIG
  • 242230Z 28004KT 9999 SCT023 SCT050 14/10 Q1021 NOSIG

TAF TAF EICK
Valid from the 25 at 00:00 until the 26 at 00:00 UTC


242300Z 2500/2524 VRB03KT 9999 BKN025
BECMG 2503/2506 27008KT
PROB40
TEMPO 2503/2510 4000 -DZ BKN010
BECMG 2512/2515 30012KT
BECMG 2522/2524 24008KT BKN010
TEMPO 2522/2524 3000 RADZ BKN004
No reported NOTAMs for that airfield.



MET'MAP, your aeronautical weather chart ! - Copyright ORBIFLY December 2007 - Disclaimer

ORBIFLY MET'MAP TEAM :

Programming & Development : Alexandra Zaïnal
Concept & Development : Baudouin d'Aumeries
Co-Development & Prog : Marc-Olivier Méhu
Technical & hardware support : Manuel Goepfert

Contact : metmap@orbifly.com




SOURCES & CREDITS :

   NOAA